createdAt,value
2022-07-29T00:02:27.241Z,2.13
2022-07-29T00:04:54.361Z,2.20
2022-07-29T00:07:21.249Z,2.20
2022-07-29T00:09:51.389Z,2.30
2022-07-29T00:12:26.550Z,2.10
2022-07-29T00:14:57.223Z,2.23
2022-07-29T00:17:27.021Z,2.10
2022-07-29T00:19:54.179Z,2.23
2022-07-29T00:22:21.556Z,2.33
2022-07-29T00:24:50.200Z,2.20
2022-07-29T00:27:18.070Z,2.30
2022-07-29T00:29:44.744Z,2.37
2022-07-29T00:32:11.505Z,2.00
2022-07-29T00:34:56.673Z,1.93
2022-07-29T00:37:23.334Z,1.90
2022-07-29T00:39:50.192Z,2.20
2022-07-29T00:42:17.555Z,2.20
2022-07-29T00:44:44.765Z,1.90
2022-07-29T00:47:13.081Z,2.33
2022-07-29T00:49:42.786Z,2.20
2022-07-29T00:52:11.679Z,2.67
2022-07-29T00:54:43.979Z,2.20
2022-07-29T00:57:12.124Z,2.20
2022-07-29T00:59:38.771Z,1.87
2022-07-29T01:02:05.656Z,2.30
2022-07-29T01:04:32.986Z,2.00
2022-07-29T01:07:01.969Z,2.27
2022-07-29T01:09:42.915Z,2.10
2022-07-29T01:12:18.051Z,2.40
2022-07-29T01:14:45.896Z,2.20
2022-07-29T01:17:23.875Z,2.00
2022-07-29T01:20:31.660Z,2.50
2022-07-29T01:23:04.512Z,2.30
2022-07-29T01:26:01.574Z,2.50
2022-07-29T01:29:00.700Z,2.40
2022-07-29T01:32:27.328Z,2.50
2022-07-29T01:35:07.308Z,2.33
2022-07-29T01:37:43.575Z,2.47
2022-07-29T01:40:28.390Z,2.40
2022-07-29T01:42:58.285Z,2.70
2022-07-29T01:45:40.036Z,2.83
2022-07-29T01:48:36.704Z,2.10
2022-07-29T01:51:09.153Z,2.27
2022-07-29T01:53:43.673Z,2.57
2022-07-29T01:56:12.759Z,2.10
2022-07-29T01:58:42.680Z,2.57
2022-07-29T02:01:12.085Z,2.50
2022-07-29T02:03:40.241Z,2.30
2022-07-29T02:06:09.988Z,3.00
2022-07-29T02:08:39.644Z,2.83
2022-07-29T02:11:08.446Z,2.30
2022-07-29T02:13:37.924Z,2.33
2022-07-29T02:16:08.508Z,2.73
2022-07-29T02:18:38.686Z,2.60
2022-07-29T02:21:05.826Z,2.37
2022-07-29T02:23:50.362Z,2.80
2022-07-29T02:26:20.110Z,2.47
2022-07-29T02:28:47.707Z,2.67
2022-07-29T02:31:16.372Z,2.60
2022-07-29T02:33:44.825Z,2.50
2022-07-29T02:36:12.432Z,2.30
2022-07-29T02:38:56.499Z,2.60
2022-07-29T02:41:36.391Z,2.70
2022-07-29T02:44:09.806Z,2.37
2022-07-29T02:46:38.861Z,2.53
2022-07-29T02:49:14.345Z,2.23
2022-07-29T02:51:47.843Z,2.27
2022-07-29T02:54:46.941Z,2.40
2022-07-29T02:57:23.812Z,2.30
2022-07-29T02:59:53.800Z,2.63
2022-07-29T03:02:22.533Z,2.50
2022-07-29T03:04:51.124Z,2.37
2022-07-29T03:07:21.272Z,2.27
2022-07-29T03:09:49.138Z,2.63
2022-07-29T03:12:17.026Z,2.73
2022-07-29T03:14:44.905Z,2.40
2022-07-29T03:17:12.452Z,2.30
2022-07-29T03:19:39.941Z,2.50
2022-07-29T03:22:07.119Z,2.50
2022-07-29T03:24:37.042Z,2.83
2022-07-29T03:27:05.078Z,2.70
2022-07-29T03:29:33.462Z,2.57
2022-07-29T03:32:07.533Z,2.90
2022-07-29T03:34:35.748Z,3.00
2022-07-29T03:37:02.507Z,2.30
2022-07-29T03:39:34.087Z,2.70
2022-07-29T03:42:02.083Z,2.13
2022-07-29T03:44:30.203Z,2.50
2022-07-29T03:46:58.970Z,2.50
2022-07-29T03:49:27.706Z,2.50
2022-07-29T03:51:55.420Z,2.47
2022-07-29T03:54:22.405Z,2.30
2022-07-29T03:56:53.207Z,2.83
2022-07-29T03:59:22.336Z,2.27
2022-07-29T04:01:49.661Z,2.57
2022-07-29T04:04:17.157Z,2.63
2022-07-29T04:06:45.968Z,2.30
2022-07-29T04:09:15.661Z,2.90
2022-07-29T04:12:01.756Z,2.40
2022-07-29T04:14:30.364Z,2.57
2022-07-29T04:16:57.076Z,2.50
2022-07-29T04:19:23.749Z,2.60
2022-07-29T04:21:50.815Z,2.80
2022-07-29T04:24:18.353Z,3.00
2022-07-29T04:26:47.021Z,2.70
2022-07-29T04:29:15.506Z,2.70
2022-07-29T04:31:43.153Z,3.03
2022-07-29T04:34:10.713Z,3.07
2022-07-29T04:36:37.427Z,3.20
2022-07-29T04:39:05.128Z,4.37
2022-07-29T04:41:33.010Z,4.47
2022-07-29T04:44:02.048Z,4.83
2022-07-29T04:46:29.128Z,6.47
2022-07-29T04:48:56.109Z,6.00
2022-07-29T04:51:22.977Z,5.30
2022-07-29T04:53:49.673Z,4.00
2022-07-29T04:56:16.392Z,4.53
2022-07-29T04:58:43.059Z,3.93
2022-07-29T05:01:10.245Z,4.10
2022-07-29T05:03:37.016Z,3.97
2022-07-29T05:06:03.852Z,3.70
2022-07-29T05:08:30.828Z,4.03
2022-07-29T05:10:57.658Z,3.63
2022-07-29T05:13:25.197Z,3.30
2022-07-29T05:15:51.910Z,3.40
2022-07-29T05:18:18.633Z,3.83
2022-07-29T05:20:45.339Z,4.10
2022-07-29T05:23:13.884Z,3.40
2022-07-29T05:25:44.213Z,3.20
2022-07-29T05:28:12.434Z,3.90
2022-07-29T05:30:39.272Z,3.23
2022-07-29T05:33:06.022Z,3.37
2022-07-29T05:35:32.815Z,3.30
2022-07-29T05:37:59.483Z,3.47
2022-07-29T05:40:26.484Z,3.00
2022-07-29T05:42:53.394Z,3.40
2022-07-29T05:45:20.152Z,3.17
2022-07-29T05:47:46.965Z,3.23
2022-07-29T05:50:14.021Z,3.40
2022-07-29T05:52:40.824Z,3.03
2022-07-29T05:55:08.018Z,3.50
2022-07-29T05:57:34.817Z,2.97
2022-07-29T06:00:01.807Z,3.30
2022-07-29T06:02:28.548Z,3.07
2022-07-29T06:04:56.377Z,2.87
2022-07-29T06:07:23.359Z,2.60
2022-07-29T06:09:50.149Z,2.60
2022-07-29T06:12:16.883Z,2.70
2022-07-29T06:14:43.618Z,2.90
2022-07-29T06:17:12.551Z,3.00
2022-07-29T06:19:39.427Z,3.23
2022-07-29T06:22:06.327Z,2.63
2022-07-29T06:24:33.158Z,3.33
2022-07-29T06:26:59.837Z,2.90
2022-07-29T06:29:27.068Z,3.50
2022-07-29T06:31:53.836Z,2.90
2022-07-29T06:34:20.785Z,3.40
2022-07-29T06:36:47.744Z,2.70
2022-07-29T06:39:16.096Z,2.80
2022-07-29T06:41:43.469Z,2.67
2022-07-29T06:44:12.666Z,2.50
2022-07-29T06:46:39.728Z,2.63
2022-07-29T06:49:06.676Z,2.40
2022-07-29T06:51:33.929Z,2.75
2022-07-29T06:54:02.747Z,2.25
2022-07-29T06:56:39.396Z,2.40
2022-07-29T06:59:09.092Z,2.50
2022-07-29T07:01:41.350Z,2.08
2022-07-29T07:04:09.843Z,2.53
2022-07-29T07:06:37.121Z,2.38
2022-07-29T07:09:04.803Z,2.40
2022-07-29T07:11:31.938Z,2.50
2022-07-29T07:14:02.944Z,2.20
2022-07-29T07:16:31.906Z,2.10
2022-07-29T07:18:58.954Z,2.25
2022-07-29T07:21:25.645Z,2.30
2022-07-29T07:23:52.351Z,2.00
2022-07-29T07:26:19.099Z,2.42
2022-07-29T07:28:45.975Z,2.17
2022-07-29T07:31:13.071Z,2.10
2022-07-29T07:33:39.899Z,2.40
2022-07-29T07:36:06.735Z,2.10
2022-07-29T07:38:33.543Z,2.03
2022-07-29T07:41:00.478Z,2.20
2022-07-29T07:43:27.328Z,2.33
2022-07-29T07:45:54.111Z,2.40
2022-07-29T07:48:21.531Z,2.40
2022-07-29T07:50:50.319Z,2.15
2022-07-29T07:53:17.305Z,2.30
2022-07-29T07:56:09.335Z,2.60
2022-07-29T07:58:31.161Z,2.67
2022-07-29T08:00:57.988Z,2.38
2022-07-29T08:03:24.903Z,1.88
2022-07-29T08:05:52.869Z,2.60
2022-07-29T08:08:19.770Z,2.08
2022-07-29T08:11:02.215Z,2.90
2022-07-29T08:13:32.914Z,2.33
2022-07-29T08:16:12.362Z,1.80
2022-07-29T08:18:41.178Z,1.83
2022-07-29T08:21:08.329Z,2.13
2022-07-29T08:23:50.387Z,2.25
2022-07-29T08:26:21.883Z,2.30
2022-07-29T08:28:51.281Z,2.10
2022-07-29T08:31:18.912Z,2.10
2022-07-29T08:33:45.880Z,2.25
2022-07-29T08:36:14.056Z,1.83
2022-07-29T08:38:40.938Z,2.08
2022-07-29T08:41:07.669Z,2.20
2022-07-29T08:43:38.253Z,2.20
2022-07-29T08:46:05.251Z,2.17
2022-07-29T08:48:32.272Z,2.08
2022-07-29T08:50:59.778Z,2.20
2022-07-29T08:53:28.207Z,2.25
2022-07-29T08:55:56.406Z,2.03
2022-07-29T08:58:25.239Z,2.60
2022-07-29T09:00:55.602Z,2.03
2022-07-29T09:03:25.965Z,2.40
2022-07-29T09:05:52.985Z,2.17
2022-07-29T09:08:21.202Z,2.20
2022-07-29T09:10:48.893Z,2.30
2022-07-29T09:13:15.821Z,2.10
2022-07-29T09:15:42.599Z,2.10
2022-07-29T09:18:20.428Z,1.90
2022-07-29T09:21:31.566Z,2.20
2022-07-29T09:24:01.210Z,2.17
2022-07-29T09:26:36.729Z,2.00
2022-07-29T09:29:14.369Z,2.42
2022-07-29T09:31:46.739Z,2.20
2022-07-29T09:34:16.614Z,2.08
2022-07-29T09:36:45.304Z,2.22
2022-07-29T09:39:12.738Z,2.40
2022-07-29T09:41:50.371Z,2.10
2022-07-29T09:44:17.666Z,2.30
2022-07-29T09:47:14.065Z,2.30
2022-07-29T09:49:59.371Z,2.10
2022-07-29T09:52:30.655Z,2.25
2022-07-29T09:55:18.463Z,2.08
2022-07-29T09:57:47.922Z,2.22
2022-07-29T10:00:20.480Z,2.13
2022-07-29T10:02:48.591Z,2.00
2022-07-29T10:05:25.658Z,2.00
2022-07-29T10:07:57.434Z,2.25
2022-07-29T10:10:30.549Z,1.90
2022-07-29T10:13:03.019Z,2.17
2022-07-29T10:15:44.789Z,1.90
2022-07-29T10:18:13.421Z,2.00
2022-07-29T10:20:40.805Z,2.05
2022-07-29T10:23:07.589Z,2.00
2022-07-29T10:25:34.418Z,1.73
2022-07-29T10:28:01.280Z,2.15
2022-07-29T10:30:28.643Z,1.83
2022-07-29T10:33:18.205Z,1.80
2022-07-29T10:36:22.527Z,1.77
2022-07-29T10:39:06.469Z,2.35
2022-07-29T10:41:59.100Z,1.88
2022-07-29T10:44:28.468Z,2.08
2022-07-29T10:46:55.753Z,2.55
2022-07-29T10:49:27.104Z,2.20
2022-07-29T10:52:02.767Z,1.92
2022-07-29T10:54:48.337Z,2.30
2022-07-29T10:57:21.391Z,2.10
2022-07-29T11:00:11.133Z,2.35
2022-07-29T11:02:41.025Z,2.00
2022-07-29T11:05:14.911Z,1.80
2022-07-29T11:08:20.458Z,1.90
2022-07-29T11:10:54.255Z,2.22
2022-07-29T11:13:53.307Z,1.80
2022-07-29T11:16:24.999Z,1.98
2022-07-29T11:19:14.256Z,1.98
2022-07-29T11:22:00.349Z,1.92
2022-07-29T11:24:31.798Z,1.90
2022-07-29T11:27:13.451Z,1.80
2022-07-29T11:29:50.787Z,1.92
2022-07-29T11:35:27.687Z,1.83
2022-07-29T11:38:23.216Z,2.10
2022-07-29T11:41:25.459Z,1.55
2022-07-29T11:44:00.163Z,2.00
2022-07-29T11:46:48.015Z,1.85
2022-07-29T11:49:22.038Z,1.50
2022-07-29T11:52:02.403Z,1.52
2022-07-29T11:54:58.365Z,1.45
2022-07-29T11:57:36.643Z,1.77
2022-07-29T12:00:38.871Z,2.15
2022-07-29T12:03:08.415Z,2.10
2022-07-29T12:05:48.386Z,1.70
2022-07-29T12:07:01.471Z,1.95
2022-07-29T12:08:23.284Z,1.95
2022-07-29T12:10:51.883Z,1.80
2022-07-29T12:13:20.930Z,2.03
2022-07-29T12:16:00.183Z,2.17
2022-07-29T12:18:27.859Z,1.63
2022-07-29T12:21:04.842Z,2.10
2022-07-29T12:23:34.670Z,2.30
2022-07-29T12:26:07.721Z,1.80
2022-07-29T12:28:39.717Z,2.65
2022-07-29T12:31:08.308Z,2.20
2022-07-29T12:33:36.180Z,2.00
2022-07-29T12:36:10.468Z,1.90
2022-07-29T12:38:42.067Z,1.80
2022-07-29T12:41:09.045Z,1.90
2022-07-29T12:43:36.007Z,2.30
2022-07-29T12:46:23.017Z,2.08
2022-07-29T12:48:57.707Z,2.20
2022-07-29T12:51:33.248Z,2.28
2022-07-29T12:54:04.799Z,1.75
2022-07-29T12:56:46.853Z,1.98
2022-07-29T12:59:23.505Z,1.95
2022-07-29T13:01:52.765Z,2.28
2022-07-29T13:04:30.597Z,2.00
2022-07-29T13:07:04.663Z,2.17
2022-07-29T13:09:49.755Z,1.90
2022-07-29T13:12:16.991Z,2.08
2022-07-29T13:14:46.554Z,1.92
2022-07-29T13:17:16.762Z,2.10
2022-07-29T13:19:44.610Z,2.13
2022-07-29T13:22:13.767Z,2.33
2022-07-29T13:24:50.929Z,1.95
2022-07-29T13:27:19.099Z,1.70
2022-07-29T13:29:46.233Z,2.03
2022-07-29T13:32:14.249Z,2.30
2022-07-29T13:34:41.799Z,2.30
2022-07-29T13:37:08.570Z,2.08
2022-07-29T13:39:35.548Z,2.50
2022-07-29T13:42:02.425Z,2.00
2022-07-29T13:44:29.173Z,2.08
2022-07-29T13:46:56.824Z,1.83
2022-07-29T13:49:23.872Z,2.20
2022-07-29T13:51:51.201Z,2.05
2022-07-29T13:54:18.005Z,2.10
2022-07-29T13:56:44.761Z,1.92
2022-07-29T13:59:13.584Z,2.10
2022-07-29T14:01:42.674Z,2.20
2022-07-29T14:04:11.287Z,2.15
2022-07-29T14:06:40.517Z,1.80
2022-07-29T14:09:07.466Z,1.90
2022-07-29T14:11:34.379Z,1.80
2022-07-29T14:14:01.191Z,2.10
2022-07-29T14:16:28.042Z,1.95
2022-07-29T14:18:54.877Z,2.38
2022-07-29T14:21:21.697Z,2.15
2022-07-29T14:23:48.769Z,2.08
2022-07-29T14:26:21.702Z,1.98
2022-07-29T14:28:51.225Z,2.17
2022-07-29T14:31:18.130Z,1.95
2022-07-29T14:33:46.217Z,2.10
2022-07-29T14:36:16.465Z,1.80
2022-07-29T14:38:43.487Z,2.00
2022-07-29T14:41:10.306Z,1.75
2022-07-29T14:43:37.060Z,1.98
2022-07-29T14:46:08.215Z,1.80
2022-07-29T14:48:36.019Z,2.30
2022-07-29T14:51:04.949Z,1.98
2022-07-29T14:53:32.062Z,2.30
2022-07-29T14:56:10.312Z,2.05
2022-07-29T14:58:51.764Z,1.80
2022-07-29T15:01:19.180Z,1.85
2022-07-29T15:03:46.769Z,2.30
2022-07-29T15:06:13.617Z,1.75
2022-07-29T15:08:40.422Z,2.08
2022-07-29T15:11:07.244Z,2.47
2022-07-29T15:13:34.794Z,1.90
2022-07-29T15:16:01.929Z,2.17
2022-07-29T15:18:28.829Z,2.45
2022-07-29T15:20:55.563Z,2.30
2022-07-29T15:23:22.320Z,1.90
2022-07-29T15:25:49.362Z,1.98
2022-07-29T15:28:16.285Z,2.10
2022-07-29T15:30:43.532Z,2.30
2022-07-29T15:33:10.561Z,2.20
2022-07-29T15:35:40.231Z,2.20
2022-07-29T15:38:08.202Z,2.40
2022-07-29T15:40:35.137Z,2.20
2022-07-29T15:43:06.927Z,2.40
2022-07-29T15:45:40.187Z,2.28
2022-07-29T15:48:09.140Z,2.35
2022-07-29T15:50:36.277Z,1.90
2022-07-29T15:53:03.736Z,2.17
2022-07-29T15:55:30.544Z,2.33
2022-07-29T15:58:00.624Z,2.17
2022-07-29T16:00:27.774Z,2.20
2022-07-29T16:02:54.519Z,2.25
2022-07-29T16:05:21.284Z,1.90
2022-07-29T16:07:48.228Z,2.05
2022-07-29T16:10:16.009Z,1.73
2022-07-29T16:12:42.837Z,2.38
2022-07-29T16:15:10.832Z,1.83
2022-07-29T16:17:38.981Z,1.95
2022-07-29T16:20:06.622Z,1.77
2022-07-29T16:22:33.417Z,2.00
2022-07-29T16:25:00.123Z,1.73
2022-07-29T16:27:35.378Z,1.92
2022-07-29T16:30:05.778Z,1.98
2022-07-29T16:32:32.720Z,1.50
2022-07-29T16:35:02.133Z,1.80
2022-07-29T16:37:33.589Z,1.80
2022-07-29T16:40:00.430Z,2.10
2022-07-29T16:42:45.413Z,1.88
2022-07-29T16:45:13.524Z,1.98
2022-07-29T16:47:40.727Z,1.73
2022-07-29T16:50:08.730Z,2.08
2022-07-29T16:52:36.048Z,2.05
2022-07-29T16:55:02.742Z,2.08
2022-07-29T16:57:29.526Z,2.00
2022-07-29T16:59:56.303Z,2.10
2022-07-29T17:02:23.123Z,1.85
2022-07-29T17:04:49.995Z,1.95
2022-07-29T17:07:17.010Z,1.85
2022-07-29T17:09:43.638Z,2.00
2022-07-29T17:12:10.292Z,1.90
2022-07-29T17:14:37.016Z,2.13
2022-07-29T17:17:04.513Z,2.10
2022-07-29T17:19:40.511Z,2.10
2022-07-29T17:22:12.934Z,1.90
2022-07-29T17:24:45.458Z,2.13
2022-07-29T17:27:12.597Z,2.10
2022-07-29T17:29:39.414Z,2.55
2022-07-29T17:32:07.661Z,2.10
2022-07-29T17:34:36.453Z,1.95
2022-07-29T17:37:04.948Z,2.00
2022-07-29T17:39:31.695Z,2.40
2022-07-29T17:41:59.326Z,2.03
2022-07-29T17:44:25.998Z,2.15
2022-07-29T17:46:52.763Z,2.15
2022-07-29T17:49:19.778Z,2.53
2022-07-29T17:51:46.597Z,1.85
2022-07-29T17:54:13.388Z,2.25
2022-07-29T17:56:40.069Z,2.10
2022-07-29T17:59:09.069Z,1.98
2022-07-29T18:01:37.220Z,1.98
2022-07-29T18:04:04.252Z,2.05
2022-07-29T18:06:30.973Z,2.05
2022-07-29T18:08:57.697Z,2.20
2022-07-29T18:11:24.502Z,2.33
2022-07-29T18:13:51.260Z,2.05
2022-07-29T18:16:18.394Z,2.15
2022-07-29T18:18:45.929Z,2.20
2022-07-29T18:21:12.747Z,2.20
2022-07-29T18:23:39.452Z,3.17
2022-07-29T18:26:06.173Z,2.10
2022-07-29T18:28:33.251Z,2.13
2022-07-29T18:31:00.893Z,2.60
2022-07-29T18:33:27.895Z,2.00
2022-07-29T18:36:10.499Z,2.33
2022-07-29T18:38:39.926Z,2.00
2022-07-29T18:41:06.770Z,1.90
2022-07-29T18:43:36.235Z,2.15
2022-07-29T18:46:05.319Z,2.00
2022-07-29T18:48:33.429Z,1.90
2022-07-29T18:51:00.245Z,1.98
2022-07-29T18:53:26.974Z,2.05
2022-07-29T18:55:58.573Z,2.30
2022-07-29T18:58:26.882Z,2.05
2022-07-29T19:00:53.788Z,2.00
2022-07-29T19:03:20.462Z,2.20
2022-07-29T19:05:47.305Z,2.22
2022-07-29T19:08:14.453Z,2.22
2022-07-29T19:10:42.293Z,2.25
2022-07-29T19:13:09.016Z,2.15
2022-07-29T19:15:40.213Z,2.35
2022-07-29T19:18:07.200Z,2.13
2022-07-29T19:20:33.964Z,2.10
2022-07-29T19:23:00.690Z,2.10
2022-07-29T19:25:27.382Z,2.42
2022-07-29T19:27:54.249Z,2.05
2022-07-29T19:30:21.103Z,2.60
2022-07-29T19:32:48.080Z,2.83
2022-07-29T19:35:25.308Z,2.03
2022-07-29T19:37:52.610Z,2.30
2022-07-29T19:40:19.351Z,2.00
2022-07-29T19:42:48.153Z,1.88
2022-07-29T19:45:14.874Z,2.20
2022-07-29T19:47:41.467Z,2.30
2022-07-29T19:50:09.122Z,2.33
2022-07-29T19:52:36.518Z,2.38
2022-07-29T19:55:07.542Z,2.40
2022-07-29T19:57:40.697Z,2.78
2022-07-29T20:00:11.123Z,2.88
2022-07-29T20:02:40.219Z,2.63
2022-07-29T20:05:08.084Z,2.35
2022-07-29T20:07:35.281Z,2.83
2022-07-29T20:10:02.583Z,2.33
2022-07-29T20:12:29.591Z,2.67
2022-07-29T20:14:56.324Z,2.60
2022-07-29T20:17:24.543Z,2.28
2022-07-29T20:19:52.899Z,2.92
2022-07-29T20:22:21.036Z,2.63
2022-07-29T20:24:49.046Z,3.00
2022-07-29T20:27:15.778Z,2.57
2022-07-29T20:29:42.687Z,2.50
2022-07-29T20:32:09.520Z,2.50
2022-07-29T20:34:36.189Z,2.80
2022-07-29T20:37:03.086Z,2.63
2022-07-29T20:39:30.353Z,2.30
2022-07-29T20:41:57.019Z,2.20
2022-07-29T20:44:24.394Z,2.60
2022-07-29T20:46:51.216Z,2.57
2022-07-29T20:49:18.151Z,2.13
2022-07-29T20:51:45.049Z,3.03
2022-07-29T20:54:12.278Z,2.70
2022-07-29T20:56:39.433Z,2.50
2022-07-29T20:59:06.128Z,3.17
2022-07-29T21:01:32.922Z,2.90
2022-07-29T21:04:01.622Z,2.50
2022-07-29T21:06:28.643Z,2.70
2022-07-29T21:08:59.703Z,2.30
2022-07-29T21:11:44.747Z,2.87
2022-07-29T21:14:29.928Z,2.30
2022-07-29T21:16:57.054Z,2.43
2022-07-29T21:19:24.202Z,2.23
2022-07-29T21:21:51.274Z,2.57
2022-07-29T21:24:19.020Z,2.40
2022-07-29T21:26:50.726Z,2.40
2022-07-29T21:29:26.802Z,2.33
2022-07-29T21:31:53.478Z,2.77
2022-07-29T21:34:20.202Z,2.60
2022-07-29T21:36:48.801Z,2.50
2022-07-29T21:39:15.738Z,2.80
2022-07-29T21:41:42.389Z,3.03
2022-07-29T21:44:09.080Z,2.63
2022-07-29T21:46:36.642Z,2.70
2022-07-29T21:49:03.678Z,3.00
2022-07-29T21:51:30.416Z,2.67
2022-07-29T21:53:57.092Z,2.70
2022-07-29T21:56:24.565Z,2.70
2022-07-29T21:58:55.025Z,2.70
2022-07-29T22:01:21.775Z,2.60
2022-07-29T22:03:48.690Z,2.30
2022-07-29T22:06:18.407Z,2.87
2022-07-29T22:08:45.872Z,2.70
2022-07-29T22:11:13.064Z,2.93
2022-07-29T22:13:39.838Z,2.30
2022-07-29T22:16:06.838Z,2.70
2022-07-29T22:18:33.662Z,3.03
2022-07-29T22:21:00.348Z,2.40
2022-07-29T22:23:27.078Z,3.40
2022-07-29T22:25:53.852Z,2.70
2022-07-29T22:28:20.519Z,2.77
2022-07-29T22:30:47.483Z,2.83
2022-07-29T22:33:17.550Z,3.03
2022-07-29T22:35:45.558Z,2.77
2022-07-29T22:38:17.240Z,2.73
2022-07-29T22:40:48.712Z,2.40
2022-07-29T22:43:17.890Z,2.72
2022-07-29T22:45:44.755Z,2.43
2022-07-29T22:48:11.625Z,2.87
2022-07-29T22:50:38.973Z,2.60
2022-07-29T22:53:05.996Z,2.33
2022-07-29T22:55:32.709Z,2.90
2022-07-29T22:57:59.520Z,2.63
2022-07-29T23:00:26.195Z,2.77
2022-07-29T23:02:52.954Z,2.83
2022-07-29T23:05:19.752Z,2.40
2022-07-29T23:07:46.457Z,2.80
2022-07-29T23:10:13.349Z,2.60
2022-07-29T23:12:40.041Z,2.53
2022-07-29T23:15:07.138Z,2.83
2022-07-29T23:17:36.528Z,3.07
2022-07-29T23:20:06.636Z,2.37
2022-07-29T23:22:33.819Z,2.77
2022-07-29T23:25:00.599Z,2.60
2022-07-29T23:27:27.298Z,2.60
2022-07-29T23:29:54.003Z,2.60
2022-07-29T23:32:20.962Z,3.17
2022-07-29T23:34:47.776Z,2.50
2022-07-29T23:37:14.558Z,2.53
2022-07-29T23:39:41.277Z,2.77
2022-07-29T23:42:08.414Z,2.60
2022-07-29T23:44:35.111Z,2.67
2022-07-29T23:47:02.181Z,2.60
2022-07-29T23:49:29.124Z,3.40
2022-07-29T23:51:55.942Z,2.70
2022-07-29T23:54:22.808Z,3.13
2022-07-29T23:56:49.533Z,3.40
2022-07-29T23:59:16.324Z,3.10
